Time;durP1;ratioP1;P1;durP2;ratioP2;P2;SDS_P1;SDS_P2;PMS_P1;PMS_P2;Temp;Humidity;BMP_temperature;BMP_pressure;BME280_temperature;BME280_humidity;BME280_pressure;Samples;Min_cycle;Max_cycle;Signal;HPM_P1;HPM_P2
2021/05/02 00:00:18;;;;;;;7.63;3.75;;;9.80;67.20;;;;;;5007548;28;20037;-79
2021/05/02 00:02:44;;;;;;;9.15;4.30;;;9.80;67.40;;;;;;5022126;28;20037;-78
2021/05/02 00:05:10;;;;;;;7.07;4.22;;;9.80;67.30;;;;;;4963826;28;20056;-78
2021/05/02 00:07:36;;;;;;;6.97;4.35;;;9.80;67.30;;;;;;4989650;28;20053;-78
2021/05/02 00:10:02;;;;;;;7.35;4.03;;;9.80;67.60;;;;;;4987185;28;20042;-79
2021/05/02 00:12:28;;;;;;;6.65;3.80;;;9.80;67.60;;;;;;5038206;28;20046;-77
2021/05/02 00:14:54;;;;;;;7.15;4.40;;;9.80;67.70;;;;;;4970992;28;20471;-78
2021/05/02 00:17:21;;;;;;;7.63;4.35;;;9.80;67.70;;;;;;5003243;28;20077;-83
2021/05/02 00:19:47;;;;;;;7.03;3.78;;;9.70;67.80;;;;;;5004258;28;20044;-77
2021/05/02 00:22:13;;;;;;;6.82;4.28;;;9.80;68.00;;;;;;4988785;28;20474;-77
2021/05/02 00:24:38;;;;;;;6.25;4.47;;;9.70;67.90;;;;;;4989608;28;20037;-78
2021/05/02 00:27:05;;;;;;;6.47;4.65;;;9.70;68.10;;;;;;4971270;28;20109;-80
2021/05/02 00:29:30;;;;;;;8.00;4.20;;;9.70;68.10;;;;;;5005391;28;20104;-78
2021/05/02 00:31:57;;;;;;;5.22;3.75;;;9.70;68.10;;;;;;4991821;28;20050;-77
2021/05/02 00:34:23;;;;;;;7.75;3.80;;;9.70;68.30;;;;;;4988513;28;20050;-83
2021/05/02 00:36:49;;;;;;;5.38;3.42;;;9.70;68.20;;;;;;4989660;28;20128;-77
2021/05/02 00:39:15;;;;;;;7.53;3.45;;;9.70;68.40;;;;;;5022453;28;20076;-78
2021/05/02 00:41:41;;;;;;;6.05;3.17;;;9.70;68.30;;;;;;5003836;28;20049;-78
2021/05/02 00:44:17;;;;;;;6.43;3.10;;;9.70;68.20;;;;;;4989829;28;20053;-78
2021/05/02 00:46:53;;;;;;;5.47;2.90;;;9.70;68.30;;;;;;4994362;28;20041;-79
2021/05/02 00:49:41;;;;;;;7.47;3.53;;;9.70;68.20;;;;;;4972671;28;20145;-77
2021/05/02 00:52:30;;;;;;;5.07;2.92;;;9.70;68.40;;;;;;4981816;28;20049;-78
2021/05/02 00:55:07;;;;;;;8.77;3.20;;;9.70;68.60;;;;;;5022646;28;20042;-77
2021/05/02 00:57:56;;;;;;;8.18;3.63;;;9.70;68.50;;;;;;4998814;28;20072;-78
2021/05/02 01:00:22;;;;;;;5.30;2.92;;;9.70;68.90;;;;;;4973296;28;20056;-78
2021/05/02 01:02:52;;;;;;;7.10;3.20;;;9.60;68.40;;;;;;5005107;28;20046;-78
2021/05/02 01:05:17;;;;;;;6.40;2.80;;;9.60;68.40;;;;;;4989934;28;20041;-79
2021/05/02 01:07:43;;;;;;;5.93;2.65;;;9.60;68.50;;;;;;4988962;28;20131;-76
2021/05/02 01:10:16;;;;;;;6.75;3.13;;;9.60;68.50;;;;;;4989392;28;20042;-78
2021/05/02 01:12:50;;;;;;;5.15;3.08;;;9.60;68.50;;;;;;5021560;28;20055;-77
2021/05/02 01:15:22;;;;;;;5.85;3.08;;;9.60;68.50;;;;;;5022654;28;20041;-78
2021/05/02 01:18:16;;;;;;;6.05;2.63;;;9.60;68.50;;;;;;5021750;28;20072;-78
2021/05/02 01:20:42;;;;;;;5.50;2.83;;;9.60;68.90;;;;;;5001896;28;20057;-76
2021/05/02 01:23:11;;;;;;;5.35;3.00;;;9.60;68.50;;;;;;5021285;28;20046;-78
2021/05/02 01:25:37;;;;;;;8.63;2.72;;;9.60;68.60;;;;;;5021094;28;20052;-78
2021/05/02 01:28:03;;;;;;;8.07;2.95;;;9.60;68.70;;;;;;4988929;28;20062;-78
2021/05/02 01:30:29;;;;;;;4.82;2.72;;;9.60;68.70;;;;;;5021649;28;20120;-78
2021/05/02 01:32:55;;;;;;;5.07;2.95;;;9.60;68.80;;;;;;5005276;28;20096;-79
2021/05/02 01:35:21;;;;;;;6.25;3.10;;;9.60;68.70;;;;;;5021787;28;20141;-77
2021/05/02 01:37:48;;;;;;;5.93;2.92;;;9.50;68.60;;;;;;5004899;28;20092;-78
2021/05/02 01:40:15;;;;;;;9.10;3.80;;;9.50;68.70;;;;;;5005480;28;20042;-78
2021/05/02 01:42:40;;;;;;;6.90;3.35;;;9.50;68.70;;;;;;5021124;28;20099;-77
2021/05/02 01:45:07;;;;;;;7.75;3.05;;;9.50;68.70;;;;;;4988879;28;20042;-78
2021/05/02 01:47:32;;;;;;;7.40;3.22;;;9.50;68.60;;;;;;5005120;28;20107;-81
2021/05/02 01:50:06;;;;;;;4.78;2.83;;;9.50;68.80;;;;;;4978920;28;20471;-79
2021/05/02 01:52:38;;;;;;;6.43;3.10;;;9.50;68.80;;;;;;5005247;28;20129;-82
2021/05/02 01:55:04;;;;;;;8.88;2.97;;;9.40;68.60;;;;;;4989131;28;20406;-78
2021/05/02 01:57:31;;;;;;;6.30;2.83;;;9.50;68.70;;;;;;5038434;28;20045;-78
2021/05/02 02:00:10;;;;;;;5.55;2.70;;;9.50;68.80;;;;;;4969497;28;20536;-77
2021/05/02 02:02:37;;;;;;;5.68;2.30;;;9.50;68.80;;;;;;4968916;28;20038;-81
2021/05/02 02:05:03;;;;;;;8.43;3.00;;;9.50;68.60;;;;;;4968744;28;20081;-78
2021/05/02 02:07:29;;;;;;;8.57;2.92;;;9.40;68.50;;;;;;4985238;28;20050;-78
2021/05/02 02:09:54;;;;;;;7.47;3.53;;;9.40;68.60;;;;;;4968306;28;20148;-77
2021/05/02 02:12:20;;;;;;;7.63;2.67;;;9.40;68.70;;;;;;4984276;28;20078;-78
2021/05/02 02:14:49;;;;;;;7.68;2.85;;;9.40;68.60;;;;;;5018325;28;20034;-78
2021/05/02 02:17:15;;;;;;;6.20;2.30;;;9.40;68.60;;;;;;4968929;28;20072;-78
2021/05/02 02:19:41;;;;;;;4.50;2.38;;;9.40;68.70;;;;;;4968201;28;20045;-80
2021/05/02 02:22:07;;;;;;;7.45;2.97;;;9.40;68.80;;;;;;5018729;28;20049;-78
2021/05/02 02:24:46;;;;;;;6.80;2.33;;;9.40;68.80;;;;;;4968880;28;20121;-77
2021/05/02 02:27:13;;;;;;;4.25;2.50;;;9.40;68.80;;;;;;4969596;28;20065;-78
2021/05/02 02:29:42;;;;;;;6.55;2.72;;;9.30;68.60;;;;;;4984713;28;20160;-81
2021/05/02 02:32:10;;;;;;;5.50;2.40;;;9.30;69.40;;;;;;4969114;28;20180;-78
2021/05/02 02:34:39;;;;;;;7.97;2.47;;;9.40;68.70;;;;;;4984670;28;20045;-78
2021/05/02 02:37:05;;;;;;;7.20;2.50;;;9.30;68.60;;;;;;4984619;28;20038;-78
2021/05/02 02:39:30;;;;;;;6.10;2.20;;;9.30;68.50;;;;;;4968328;28;20053;-78
2021/05/02 02:41:56;;;;;;;4.78;1.95;;;9.30;68.40;;;;;;4968083;28;20056;-78
2021/05/02 02:44:22;;;;;;;4.50;2.30;;;9.30;68.20;;;;;;4984389;28;20049;-78
2021/05/02 02:46:48;;;;;;;6.95;2.22;;;9.30;68.20;;;;;;4983949;28;20501;-78
2021/05/02 02:49:14;;;;;;;4.95;2.17;;;9.20;68.00;;;;;;4968227;28;20057;-77
2021/05/02 02:51:40;;;;;;;6.10;2.08;;;9.20;67.90;;;;;;4984440;28;20046;-77
2021/05/02 02:54:07;;;;;;;5.32;2.40;;;9.20;67.90;;;;;;4967581;28;20050;-78
2021/05/02 02:56:33;;;;;;;4.20;2.20;;;9.20;67.90;;;;;;4952388;28;20113;-79
2021/05/02 02:59:04;;;;;;;7.47;2.03;;;9.20;67.80;;;;;;4951658;28;20082;-78
2021/05/02 03:01:29;;;;;;;5.57;1.98;;;9.10;67.80;;;;;;4967810;28;20045;-78
2021/05/02 03:03:58;;;;;;;4.95;1.83;;;9.10;67.80;;;;;;4983384;28;20075;-79
2021/05/02 03:06:28;;;;;;;4.85;2.05;;;9.10;67.60;;;;;;4984234;28;20407;-77
2021/05/02 03:08:55;;;;;;;7.82;2.53;;;9.20;67.70;;;;;;4967375;28;20096;-78
2021/05/02 03:11:21;;;;;;;4.18;1.80;;;9.10;67.60;;;;;;4983906;28;20454;-79
2021/05/02 03:13:47;;;;;;;5.63;2.35;;;9.20;67.60;;;;;;4967652;28;20054;-80
2021/05/02 03:16:13;;;;;;;3.63;1.88;;;9.10;67.40;;;;;;4984267;28;20066;-78
2021/05/02 03:18:42;;;;;;;8.10;2.33;;;9.10;67.40;;;;;;4968101;28;20072;-78
2021/05/02 03:21:08;;;;;;;7.05;2.22;;;9.10;67.40;;;;;;5016857;28;20057;-79
2021/05/02 03:23:38;;;;;;;7.53;2.53;;;9.10;67.40;;;;;;4973818;28;20488;-78
2021/05/02 03:26:06;;;;;;;5.97;2.38;;;9.10;67.30;;;;;;4990726;28;20145;-78
2021/05/02 03:28:39;;;;;;;4.53;2.15;;;9.10;67.20;;;;;;4958664;28;20053;-82
2021/05/02 03:31:05;;;;;;;5.85;2.70;;;9.00;67.10;;;;;;4991985;28;20050;-77
2021/05/02 03:33:36;;;;;;;4.70;2.25;;;9.00;67.00;;;;;;4992019;28;20045;-77
2021/05/02 03:36:25;;;;;;;8.07;2.45;;;9.00;66.90;;;;;;4983109;28;20149;-78
2021/05/02 03:38:51;;;;;;;6.35;2.10;;;9.00;66.90;;;;;;4996661;28;20057;-82
2021/05/02 03:41:17;;;;;;;6.13;2.58;;;9.10;66.80;;;;;;4976835;28;20038;-80
2021/05/02 03:43:43;;;;;;;5.20;2.03;;;9.00;66.60;;;;;;5011741;28;20064;-78
2021/05/02 03:46:23;;;;;;;5.95;2.38;;;8.90;66.50;;;;;;4994683;28;20124;-78
2021/05/02 03:48:57;;;;;;;5.50;2.30;;;8.90;66.40;;;;;;5030334;28;20053;-80
2021/05/02 03:51:24;;;;;;;6.38;2.25;;;8.90;66.30;;;;;;4996495;28;20050;-78
2021/05/02 03:53:50;;;;;;;5.70;2.20;;;8.90;66.30;;;;;;5012650;28;20049;-82
2021/05/02 03:56:35;;;;;;;6.47;2.45;;;8.80;66.30;;;;;;4996349;28;20090;-78
2021/05/02 03:59:13;;;;;;;3.88;2.15;;;8.80;66.30;;;;;;5028368;28;20097;-77
2021/05/02 04:01:53;;;;;;;8.48;2.50;;;8.80;66.30;;;;;;5014045;28;20044;-76
2021/05/02 04:04:23;;;;;;;6.78;2.78;;;8.70;66.30;;;;;;4997349;28;20065;-77
2021/05/02 04:06:49;;;;;;;9.73;2.90;;;8.70;66.20;;;;;;4997354;28;20056;-75
2021/05/02 04:09:16;;;;;;;7.60;2.45;;;8.70;66.40;;;;;;5011977;28;20049;-75
2021/05/02 04:11:42;;;;;;;5.50;2.28;;;8.70;66.40;;;;;;5011461;28;20045;-79
2021/05/02 04:14:09;;;;;;;7.57;2.35;;;8.60;66.50;;;;;;4993959;28;20041;-78
2021/05/02 04:16:36;;;;;;;3.97;2.10;;;8.60;66.40;;;;;;5010589;28;20045;-78
2021/05/02 04:19:02;;;;;;;6.05;2.03;;;8.60;66.40;;;;;;5010487;28;20096;-78
2021/05/02 04:21:28;;;;;;;6.93;2.45;;;8.60;66.40;;;;;;5010997;28;20597;-77
2021/05/02 04:23:54;;;;;;;2.75;2.10;;;8.50;66.50;;;;;;4978638;28;20065;-83
2021/05/02 04:26:20;;;;;;;7.45;2.50;;;8.50;66.60;;;;;;5010913;28;20037;-78
2021/05/02 04:28:46;;;;;;;3.75;2.10;;;8.50;66.60;;;;;;5011375;28;20058;-79
2021/05/02 04:31:14;;;;;;;6.13;2.83;;;8.50;66.50;;;;;;5011222;28;20180;-76
2021/05/02 04:33:39;;;;;;;4.72;2.20;;;8.50;66.60;;;;;;5009380;28;20119;-79
2021/05/02 04:36:06;;;;;;;4.78;2.10;;;8.50;66.60;;;;;;4974906;28;20510;-77
2021/05/02 04:38:31;;;;;;;5.75;2.70;;;8.50;66.50;;;;;;5007860;28;20379;-79
2021/05/02 04:40:57;;;;;;;7.88;2.35;;;8.40;66.50;;;;;;5024151;28;20088;-82
2021/05/02 04:43:23;;;;;;;5.03;1.90;;;8.40;66.50;;;;;;4991521;28;20046;-79
2021/05/02 04:45:49;;;;;;;5.07;2.47;;;8.40;66.50;;;;;;5024261;28;20049;-78
2021/05/02 04:48:15;;;;;;;7.70;2.38;;;8.40;66.50;;;;;;4991660;28;20073;-78
2021/05/02 04:50:40;;;;;;;5.03;2.30;;;8.40;66.50;;;;;;4991735;28;20052;-77
2021/05/02 04:53:06;;;;;;;6.28;2.40;;;8.40;66.50;;;;;;5007180;28;20046;-79
2021/05/02 04:55:32;;;;;;;5.93;2.45;;;8.30;66.50;;;;;;4991489;28;20124;-79
2021/05/02 04:58:01;;;;;;;8.05;3.33;;;8.30;66.60;;;;;;5007381;28;20056;-81
2021/05/02 05:00:27;;;;;;;7.18;2.33;;;8.30;66.60;;;;;;4992325;28;20049;-78
2021/05/02 05:02:53;;;;;;;8.80;2.80;;;8.30;66.70;;;;;;5023712;28;20095;-78
2021/05/02 05:05:19;;;;;;;7.97;2.90;;;8.30;66.60;;;;;;5023446;28;20084;-78
2021/05/02 05:07:45;;;;;;;4.65;2.50;;;8.30;66.60;;;;;;5007556;28;20359;-79
2021/05/02 05:10:11;;;;;;;5.65;2.75;;;8.30;66.60;;;;;;5006887;28;20069;-78
2021/05/02 05:12:37;;;;;;;6.15;2.65;;;8.20;66.60;;;;;;4990668;28;20053;-78
2021/05/02 05:15:05;;;;;;;5.90;2.30;;;8.20;66.50;;;;;;5022930;28;20068;-81
2021/05/02 05:17:31;;;;;;;5.70;2.45;;;8.20;66.60;;;;;;4990906;28;20069;-77
2021/05/02 05:19:57;;;;;;;7.07;2.38;;;8.20;66.60;;;;;;5023372;28;20056;-78
2021/05/02 05:22:23;;;;;;;7.55;3.03;;;8.10;66.60;;;;;;5006888;28;20145;-78
2021/05/02 05:24:49;;;;;;;7.13;2.38;;;8.20;66.60;;;;;;4992019;28;20097;-76
2021/05/02 05:27:14;;;;;;;5.50;2.33;;;8.20;66.60;;;;;;5006930;28;20101;-79
2021/05/02 05:29:40;;;;;;;6.82;3.22;;;8.20;66.60;;;;;;4974811;28;20053;-78
2021/05/02 05:32:06;;;;;;;5.40;2.60;;;8.20;66.50;;;;;;4990349;28;20041;-82
2021/05/02 05:34:32;;;;;;;4.53;2.38;;;8.20;66.50;;;;;;4991345;28;20037;-79
2021/05/02 05:36:58;;;;;;;8.43;2.92;;;8.20;66.70;;;;;;4991574;28;20042;-77
2021/05/02 05:39:26;;;;;;;5.78;2.28;;;8.30;66.60;;;;;;4990620;28;20049;-77
2021/05/02 05:41:52;;;;;;;6.47;2.80;;;8.20;66.50;;;;;;4991311;28;20050;-77
2021/05/02 05:44:18;;;;;;;5.03;2.88;;;8.30;66.70;;;;;;5022750;28;20052;-79
2021/05/02 05:46:44;;;;;;;7.07;3.13;;;8.30;66.60;;;;;;5006877;28;20066;-77
2021/05/02 05:49:11;;;;;;;6.15;2.80;;;8.30;66.50;;;;;;4990328;28;20049;-78
2021/05/02 05:51:37;;;;;;;4.50;2.53;;;8.30;66.50;;;;;;4991246;28;20053;-79
2021/05/02 05:54:03;;;;;;;4.60;2.65;;;8.40;66.40;;;;;;4990711;28;20053;-79
2021/05/02 05:56:29;;;;;;;6.88;3.05;;;8.40;66.40;;;;;;5006330;28;20185;-77
2021/05/02 05:58:54;;;;;;;6.82;2.75;;;8.40;66.50;;;;;;4974265;28;20172;-76
2021/05/02 06:01:20;;;;;;;7.05;3.40;;;8.40;66.50;;;;;;4989517;28;20047;-77
2021/05/02 06:03:46;;;;;;;5.45;3.03;;;8.40;66.50;;;;;;5006758;28;20045;-78
2021/05/02 06:06:12;;;;;;;6.50;3.22;;;8.40;66.50;;;;;;5006022;28;20042;-79
2021/05/02 06:08:41;;;;;;;5.15;3.20;;;8.50;66.70;;;;;;5023040;28;20041;-79
2021/05/02 06:11:08;;;;;;;11.00;3.80;;;8.50;66.60;;;;;;4991501;28;20071;-79
2021/05/02 06:13:34;;;;;;;6.30;2.75;;;8.50;66.50;;;;;;5022336;28;20128;-77
2021/05/02 06:16:00;;;;;;;4.80;3.00;;;8.50;66.40;;;;;;5006414;28;20037;-79
2021/05/02 06:18:26;;;;;;;5.15;2.67;;;8.50;66.40;;;;;;5005566;28;20160;-79
2021/05/02 06:20:54;;;;;;;7.80;3.00;;;8.50;66.40;;;;;;5006325;28;20483;-79
2021/05/02 06:23:19;;;;;;;6.47;2.95;;;8.50;66.40;;;;;;5005429;28;20075;-79
2021/05/02 06:25:45;;;;;;;7.15;3.15;;;8.60;66.30;;;;;;5006300;28;20057;-78
2021/05/02 06:28:11;;;;;;;8.52;3.70;;;8.60;66.20;;;;;;4989291;28;20490;-81
2021/05/02 06:30:37;;;;;;;6.47;3.58;;;8.60;66.20;;;;;;4989002;28;20057;-78
2021/05/02 06:33:03;;;;;;;6.40;2.92;;;8.60;66.20;;;;;;5021660;28;20045;-77
2021/05/02 06:35:29;;;;;;;5.30;2.90;;;8.70;66.30;;;;;;5004859;28;20109;-77
2021/05/02 06:37:55;;;;;;;6.60;3.38;;;8.70;66.20;;;;;;4972771;28;20069;-78
2021/05/02 06:40:21;;;;;;;7.38;2.88;;;8.70;66.20;;;;;;5021725;28;20375;-78
2021/05/02 06:42:47;;;;;;;8.38;3.13;;;8.70;66.20;;;;;;5002498;28;20044;-78
2021/05/02 06:45:13;;;;;;;6.93;3.42;;;8.70;66.10;;;;;;5000660;28;20092;-80
2021/05/02 06:47:39;;;;;;;7.22;3.15;;;8.80;66.00;;;;;;5006650;28;20053;-78
2021/05/02 06:50:05;;;;;;;9.07;3.35;;;8.80;66.00;;;;;;5003628;28;20041;-79
2021/05/02 06:52:31;;;;;;;6.40;3.13;;;8.80;66.00;;;;;;4988551;28;20043;-78
2021/05/02 06:54:59;;;;;;;5.10;2.72;;;8.80;66.00;;;;;;5002643;28;20038;-79
2021/05/02 06:57:25;;;;;;;7.72;3.10;;;8.80;66.00;;;;;;5019486;28;20063;-79
2021/05/02 06:59:54;;;;;;;7.07;3.28;;;8.90;66.10;;;;;;5004587;28;20057;-82
2021/05/02 07:02:20;;;;;;;6.88;3.63;;;8.90;66.20;;;;;;5004193;28;20546;-80
2021/05/02 07:04:46;;;;;;;4.82;2.90;;;8.90;66.10;;;;;;5003448;28;20057;-78
2021/05/02 07:07:11;;;;;;;6.60;3.03;;;9.00;66.10;;;;;;5020116;28;20053;-80
2021/05/02 07:09:37;;;;;;;6.10;3.13;;;9.00;66.00;;;;;;5017469;28;20052;-78
2021/05/02 07:12:03;;;;;;;7.05;3.05;;;9.00;65.90;;;;;;5020295;28;20148;-78
2021/05/02 07:14:29;;;;;;;6.82;2.97;;;9.00;65.80;;;;;;5019367;28;20041;-78
2021/05/02 07:16:55;;;;;;;6.63;2.80;;;9.10;66.00;;;;;;4987919;28;20046;-79
2021/05/02 07:19:23;;;;;;;6.57;2.85;;;9.10;65.90;;;;;;5016298;28;20128;-82
2021/05/02 07:21:52;;;;;;;8.07;2.97;;;9.10;65.90;;;;;;4988422;28;20042;-78
2021/05/02 07:24:18;;;;;;;5.05;2.22;;;9.20;65.90;;;;;;4972732;28;20045;-82
2021/05/02 07:26:44;;;;;;;5.95;2.65;;;9.20;65.70;;;;;;4988204;28;20120;-78
2021/05/02 07:29:10;;;;;;;4.38;2.20;;;9.20;65.50;;;;;;5016017;28;20075;-77
2021/05/02 07:31:35;;;;;;;4.25;2.05;;;9.30;65.40;;;;;;4997982;28;20125;-81
2021/05/02 07:34:01;;;;;;;5.00;2.20;;;9.20;64.80;;;;;;4983578;28;20049;-78
2021/05/02 07:36:27;;;;;;;4.35;1.80;;;9.20;64.60;;;;;;5004175;28;20054;-77
2021/05/02 07:38:53;;;;;;;6.25;2.55;;;9.20;64.40;;;;;;5000321;28;20128;-76
2021/05/02 07:41:19;;;;;;;3.92;2.35;;;9.20;64.20;;;;;;4985677;28;20056;-77
2021/05/02 07:43:44;;;;;;;7.07;2.30;;;9.20;64.10;;;;;;5020165;28;20041;-79
2021/05/02 07:46:10;;;;;;;5.82;2.55;;;9.20;63.90;;;;;;5020976;28;20449;-79
2021/05/02 07:48:37;;;;;;;3.25;1.50;;;9.20;63.80;;;;;;5003659;28;20081;-76
2021/05/02 07:51:03;;;;;;;2.90;1.88;;;9.50;65.90;;;;;;5004774;28;20053;-75
2021/05/02 07:53:29;;;;;;;4.35;2.05;;;9.90;65.90;;;;;;5020775;28;20042;-77
2021/05/02 07:55:55;;;;;;;4.45;2.03;;;10.00;63.70;;;;;;5021146;28;20045;-78
2021/05/02 07:58:21;;;;;;;5.63;1.90;;;10.00;62.80;;;;;;5020571;28;20069;-76
2021/05/02 08:00:47;;;;;;;4.45;2.03;;;9.90;62.30;;;;;;5003303;28;20038;-79
2021/05/02 08:03:12;;;;;;;4.53;1.85;;;9.90;61.90;;;;;;5003815;28;20037;-76
2021/05/02 08:05:38;;;;;;;5.25;2.47;;;9.90;62.00;;;;;;5020059;28;20470;-77
2021/05/02 08:08:05;;;;;;;5.18;2.30;;;9.90;62.20;;;;;;5020989;28;20046;-77
2021/05/02 08:10:31;;;;;;;5.80;2.63;;;9.90;62.30;;;;;;5004014;28;20099;-76
2021/05/02 08:12:57;;;;;;;5.35;2.03;;;10.00;63.90;;;;;;5005922;28;20405;-78
2021/05/02 08:15:23;;;;;;;5.00;2.13;;;10.50;65.90;;;;;;4988732;28;20069;-73
2021/05/02 08:17:49;;;;;;;4.88;1.90;;;11.00;64.20;;;;;;5041446;28;20037;-76
2021/05/02 08:20:15;;;;;;;3.15;1.77;;;11.30;63.10;;;;;;5008174;28;20042;-75
2021/05/02 08:22:42;;;;;;;5.10;1.95;;;11.60;61.80;;;;;;5008522;28;20092;-74
2021/05/02 08:25:09;;;;;;;4.00;2.03;;;11.80;60.90;;;;;;5024056;28;20049;-73
2021/05/02 08:27:35;;;;;;;4.43;2.20;;;12.10;60.10;;;;;;5021646;28;20053;-75
2021/05/02 08:30:02;;;;;;;3.78;2.05;;;12.10;59.10;;;;;;4991349;28;20136;-80
2021/05/02 08:32:29;;;;;;;4.03;1.90;;;12.00;58.20;;;;;;4990529;28;20145;-82
2021/05/02 08:34:55;;;;;;;5.05;1.80;;;11.80;57.10;;;;;;4988934;28;20467;-76
2021/05/02 08:37:21;;;;;;;2.95;1.60;;;11.70;57.20;;;;;;5015229;28;20052;-88
2021/05/02 08:39:50;;;;;;;4.57;1.88;;;11.80;58.50;;;;;;5000663;28;20057;-79
2021/05/02 08:42:16;;;;;;;4.72;1.45;;;11.80;57.90;;;;;;4987020;28;20080;-82
2021/05/02 08:44:41;;;;;;;3.15;1.67;;;11.70;57.50;;;;;;4953271;28;20049;-81
2021/05/02 08:47:07;;;;;;;5.47;2.10;;;11.60;57.10;;;;;;4985145;28;20108;-80
2021/05/02 08:49:33;;;;;;;6.57;2.05;;;11.50;57.00;;;;;;4969066;28;20052;-81
2021/05/02 08:51:59;;;;;;;2.47;1.65;;;11.40;56.80;;;;;;5004128;28;20124;-82
2021/05/02 08:54:25;;;;;;;6.90;2.35;;;11.30;56.70;;;;;;5003914;28;20101;-82
2021/05/02 08:56:55;;;;;;;3.25;1.80;;;11.20;56.70;;;;;;4987062;28;20115;-79
2021/05/02 08:59:21;;;;;;;3.92;1.50;;;11.20;56.50;;;;;;4956141;28;20062;-79
2021/05/02 09:01:47;;;;;;;4.60;2.13;;;11.10;56.80;;;;;;4986926;28;20065;-79
2021/05/02 09:04:12;;;;;;;6.85;2.15;;;11.20;56.70;;;;;;4987735;28;20046;-81
2021/05/02 09:06:44;;;;;;;5.28;1.88;;;11.10;56.80;;;;;;4973024;28;20474;-79
2021/05/02 09:09:11;;;;;;;5.47;1.80;;;11.00;57.10;;;;;;4987636;28;20037;-81
2021/05/02 09:11:48;;;;;;;6.85;2.20;;;11.00;57.40;;;;;;4970870;28;20057;-81
2021/05/02 09:14:17;;;;;;;5.40;2.20;;;11.00;57.50;;;;;;4955469;28;20057;-79
2021/05/02 09:16:54;;;;;;;6.75;2.03;;;11.00;57.70;;;;;;5018730;28;20046;-79
2021/05/02 09:19:21;;;;;;;3.83;2.10;;;11.00;57.90;;;;;;4967685;28;20080;-78
2021/05/02 09:21:47;;;;;;;5.65;2.28;;;11.00;58.70;;;;;;4986996;28;20050;-79
2021/05/02 09:24:33;;;;;;;4.03;1.75;;;11.10;58.10;;;;;;4987852;28;20049;-80
2021/05/02 09:27:15;;;;;;;5.57;2.00;;;11.10;57.90;;;;;;5004498;28;20588;-76
2021/05/02 09:29:43;;;;;;;3.80;1.90;;;11.10;57.40;;;;;;4987480;28;20046;-78
2021/05/02 09:32:10;;;;;;;4.70;1.80;;;11.00;57.10;;;;;;4987726;28;20379;-78
2021/05/02 09:34:47;;;;;;;4.50;1.65;;;11.00;57.00;;;;;;4987747;28;20092;-79
2021/05/02 09:37:16;;;;;;;3.47;1.38;;;11.00;56.70;;;;;;4957444;28;20057;-80
2021/05/02 09:39:48;;;;;;;5.45;1.73;;;11.10;57.00;;;;;;4971310;28;20045;-79
2021/05/02 09:42:21;;;;;;;5.32;1.90;;;11.10;56.80;;;;;;4972115;28;20511;-79
2021/05/02 09:44:50;;;;;;;;;;;11.20;56.90;;;;;;4987475;28;20050;-80
2021/05/02 09:47:34;;;;;;;6.00;1.88;;;11.30;57.20;;;;;;5003345;28;19921;-79
2021/05/02 09:50:22;;;;;;;4.57;2.33;;;11.40;57.60;;;;;;4986830;28;20621;-79
2021/05/02 09:53:07;;;;;;;3.55;1.90;;;11.60;57.60;;;;;;5003549;28;20121;-79
2021/05/02 09:55:43;;;;;;;5.53;1.83;;;11.70;56.20;;;;;;4959125;28;20050;-79
2021/05/02 09:58:16;;;;;;;3.25;1.63;;;11.70;55.20;;;;;;4987557;28;20042;-79
2021/05/02 10:00:43;;;;;;;4.28;1.60;;;11.80;55.10;;;;;;5003896;28;20048;-81
2021/05/02 10:03:16;;;;;;;3.20;1.70;;;11.90;55.10;;;;;;4955042;28;20053;-80
2021/05/02 10:06:22;;;;;;;3.45;1.88;;;11.90;54.80;;;;;;4987756;28;20042;-79
2021/05/02 10:08:50;;;;;;;4.65;1.90;;;12.00;54.90;;;;;;5010516;28;20054;-79
2021/05/02 10:11:16;;;;;;;4.15;1.60;;;12.10;55.20;;;;;;4970753;28;20050;-78
2021/05/02 10:13:41;;;;;;;4.53;2.15;;;12.10;55.00;;;;;;4986660;28;20046;-78
2021/05/02 10:16:09;;;;;;;3.22;1.88;;;12.20;55.30;;;;;;4970900;28;20096;-79
2021/05/02 10:18:36;;;;;;;6.18;2.30;;;12.30;54.90;;;;;;4971214;28;20045;-81
2021/05/02 10:21:02;;;;;;;4.30;1.90;;;12.40;54.40;;;;;;5002223;28;20042;-79
2021/05/02 10:23:36;;;;;;;4.32;1.98;;;12.30;53.80;;;;;;5020556;28;20461;-79
2021/05/02 10:26:05;;;;;;;3.38;1.63;;;12.30;53.50;;;;;;4987546;28;20045;-81
2021/05/02 10:28:32;;;;;;;4.00;1.50;;;12.20;53.00;;;;;;4983410;28;20068;-79
2021/05/02 10:31:00;;;;;;;5.15;1.50;;;12.20;53.10;;;;;;4983161;28;20098;-78
2021/05/02 10:33:41;;;;;;;2.88;1.50;;;12.20;52.90;;;;;;4982913;28;20155;-77
2021/05/02 10:36:08;;;;;;;4.30;1.60;;;12.20;52.40;;;;;;4967598;28;20498;-77
2021/05/02 10:38:56;;;;;;;6.50;2.08;;;12.20;53.10;;;;;;4983310;28;20141;-79
2021/05/02 10:41:32;;;;;;;4.63;1.48;;;12.30;51.90;;;;;;4999656;28;20039;-79
2021/05/02 10:44:07;;;;;;;5.97;1.90;;;12.40;52.30;;;;;;4982863;28;20047;-79
2021/05/02 10:46:53;;;;;;;2.33;1.52;;;12.40;52.30;;;;;;4999394;28;20050;-80
2021/05/02 10:49:24;;;;;;;5.70;2.15;;;12.50;52.30;;;;;;5000679;28;20098;-78
2021/05/02 10:51:52;;;;;;;2.70;1.60;;;12.50;52.20;;;;;;4998833;28;20073;-78
2021/05/02 10:54:22;;;;;;;5.05;1.90;;;12.60;52.10;;;;;;4951944;28;20062;-79
2021/05/02 10:56:59;;;;;;;3.72;1.60;;;12.60;52.20;;;;;;4967750;28;20054;-80
2021/05/02 10:59:56;;;;;;;3.97;2.33;;;12.70;52.50;;;;;;4983368;28;20045;-79
2021/05/02 11:02:45;;;;;;;3.88;1.98;;;13.00;53.50;;;;;;4982227;28;20403;-78
2021/05/02 11:05:14;;;;;;;2.97;1.60;;;13.30;52.90;;;;;;4983117;28;20042;-80
2021/05/02 11:07:41;;;;;;;4.53;1.80;;;13.50;52.40;;;;;;4951187;28;20231;-79
2021/05/02 11:10:10;;;;;;;3.15;1.60;;;13.80;51.70;;;;;;4986769;28;20101;-78
2021/05/02 11:12:36;;;;;;;3.13;1.60;;;13.90;51.20;;;;;;4968447;28;20046;-80
2021/05/02 11:15:25;;;;;;;2.92;1.70;;;14.00;50.80;;;;;;4966548;28;20074;-82
2021/05/02 11:17:52;;;;;;;5.40;1.80;;;14.00;49.00;;;;;;4998729;28;20046;-81
2021/05/02 11:20:47;;;;;;;7.20;2.03;;;14.00;49.90;;;;;;4982906;28;20046;-82
2021/05/02 11:23:42;;;;;;;4.00;2.08;;;13.90;49.30;;;;;;4998485;28;20536;-78
2021/05/02 11:26:11;;;;;;;1.90;1.50;;;13.90;49.90;;;;;;4970604;28;20415;-78
2021/05/02 11:28:57;;;;;;;4.15;1.67;;;13.90;49.70;;;;;;4950813;28;20066;-77
2021/05/02 11:31:44;;;;;;;4.25;1.40;;;13.90;49.60;;;;;;4972286;28;20049;-79
2021/05/02 11:34:10;;;;;;;2.40;1.33;;;13.90;48.80;;;;;;4982071;28;20049;-79
2021/05/02 11:36:39;;;;;;;4.90;1.50;;;13.80;49.10;;;;;;4983279;28;20075;-78
2021/05/02 11:39:06;;;;;;;3.45;1.60;;;13.90;48.80;;;;;;4981907;28;20128;-80
2021/05/02 11:42:01;;;;;;;3.17;1.40;;;13.90;48.80;;;;;;4966180;28;20084;-79
2021/05/02 11:44:28;;;;;;;3.40;2.00;;;13.90;47.90;;;;;;5002039;28;20057;-81
2021/05/02 11:47:02;;;;;;;5.30;1.88;;;13.90;49.50;;;;;;4992380;28;20053;-83
2021/05/02 11:49:34;;;;;;;1.77;1.20;;;13.90;49.60;;;;;;5000918;28;20080;-76
2021/05/02 11:52:00;;;;;;;2.67;1.65;;;14.00;51.10;;;;;;5018939;28;20096;-80
2021/05/02 11:54:26;;;;;;;1.90;1.30;;;14.10;49.80;;;;;;5004642;28;20042;-80
2021/05/02 11:56:52;;;;;;;4.80;1.83;;;14.30;48.80;;;;;;5021305;28;20049;-79
2021/05/02 11:59:17;;;;;;;2.53;1.77;;;14.30;47.90;;;;;;4988389;28;20173;-80
2021/05/02 12:01:47;;;;;;;5.03;1.65;;;14.30;47.20;;;;;;4987870;28;20072;-80
2021/05/02 12:04:17;;;;;;;4.32;1.42;;;14.40;47.10;;;;;;5005032;28;20107;-78
2021/05/02 12:06:44;;;;;;;3.13;1.65;;;14.40;47.10;;;;;;4990209;28;20052;-78
2021/05/02 12:09:14;;;;;;;4.78;1.60;;;14.60;46.90;;;;;;5021665;28;20049;-81
2021/05/02 12:11:41;;;;;;;6.05;2.33;;;14.80;46.90;;;;;;4989324;28;20069;-79
2021/05/02 12:14:16;;;;;;;3.05;1.60;;;14.80;46.60;;;;;;4989621;28;20042;-79
2021/05/02 12:16:44;;;;;;;2.92;1.80;;;14.80;46.10;;;;;;5022095;28;20144;-81
2021/05/02 12:19:10;;;;;;;2.58;1.30;;;14.60;46.30;;;;;;5022613;28;20044;-78
2021/05/02 12:21:46;;;;;;;3.58;2.08;;;14.50;46.40;;;;;;5005636;28;20113;-80
2021/05/02 12:24:28;;;;;;;4.45;2.20;;;14.40;46.50;;;;;;4990418;28;20111;-77
2021/05/02 12:27:06;;;;;;;3.45;1.90;;;14.20;46.20;;;;;;4974116;28;20084;-81
2021/05/02 12:29:35;;;;;;;4.18;2.03;;;14.10;46.80;;;;;;4991120;28;20061;-79
2021/05/02 12:32:11;;;;;;;4.25;1.63;;;14.00;47.00;;;;;;4988730;28;20073;-83
2021/05/02 12:34:44;;;;;;;4.45;1.60;;;13.90;47.00;;;;;;4974290;28;20054;-78
2021/05/02 12:37:23;;;;;;;3.63;1.80;;;13.80;47.90;;;;;;4987933;28;20058;-78
2021/05/02 12:39:53;;;;;;;3.03;1.50;;;13.70;47.00;;;;;;5004618;28;20089;-78
2021/05/02 12:42:35;;;;;;;5.28;2.05;;;13.70;47.60;;;;;;4988822;28;20125;-79
2021/05/02 12:45:02;;;;;;;3.90;1.90;;;13.60;47.20;;;;;;4974112;28;20046;-81
2021/05/02 12:47:28;;;;;;;3.58;2.13;;;13.60;47.70;;;;;;5021645;28;20048;-77
2021/05/02 12:50:03;;;;;;;3.80;2.15;;;13.50;48.00;;;;;;5006138;28;20069;-75
2021/05/02 12:52:36;;;;;;;2.35;1.60;;;13.50;48.30;;;;;;5006533;28;20045;-77
2021/05/02 12:55:35;;;;;;;5.82;1.98;;;13.40;48.40;;;;;;5005504;28;20046;-80
2021/05/02 12:58:07;;;;;;;3.47;1.90;;;13.40;48.60;;;;;;4962272;28;20049;-82
2021/05/02 13:00:52;;;;;;;3.63;1.80;;;13.40;48.70;;;;;;5023886;28;20065;-79
2021/05/02 13:03:38;;;;;;;4.25;1.90;;;13.30;48.50;;;;;;4990653;28;20077;-79